Time;durP1;ratioP1;P1;durP2;ratioP2;P2;SDS_P1;SDS_P2;PMS_P1;PMS_P2;Temp;Humidity;BMP_temperature;BMP_pressure;BME280_temperature;BME280_humidity;BME280_pressure;Samples;Min_cycle;Max_cycle;Signal;HPM_P1;HPM_P2
2023/01/28 00:01:07;;;;;;;18.73;6.93;;;;;;;17.39;57.75;101138.44;5021114;28;20167;-24
2023/01/28 00:03:32;;;;;;;16.95;6.90;;;;;;;17.42;58.38;101136.13;5021731;28;20036;-24
2023/01/28 00:06:04;;;;;;;17.63;6.30;;;;;;;17.42;58.12;101138.00;5021943;28;20030;-24
2023/01/28 00:08:30;;;;;;;13.80;5.97;;;;;;;17.42;58.04;101138.84;5021386;28;20033;-24
2023/01/28 00:11:00;;;;;;;15.70;5.70;;;;;;;17.42;58.29;101141.53;5022610;28;20188;-24
2023/01/28 00:13:26;;;;;;;17.27;6.55;;;;;;;17.44;58.04;101136.75;5020119;28;20021;-24
2023/01/28 00:15:59;;;;;;;17.10;6.60;;;;;;;17.43;58.21;101140.47;5022308;28;20591;-24
2023/01/28 00:18:28;;;;;;;15.95;6.45;;;;;;;17.45;58.11;101135.72;5020718;28;20029;-24
2023/01/28 00:21:02;;;;;;;13.70;5.95;;;;;;;17.45;58.12;101142.97;5022505;28;20360;-24
2023/01/28 00:23:28;;;;;;;13.60;6.20;;;;;;;17.45;58.29;101133.00;5019826;28;20338;-24
2023/01/28 00:25:57;;;;;;;14.15;5.40;;;;;;;17.42;58.26;101122.63;5021258;28;20034;-24
2023/01/28 00:28:25;;;;;;;15.35;5.57;;;;;;;17.44;58.15;101123.22;5020760;28;20033;-24
2023/01/28 00:30:51;;;;;;;14.13;5.13;;;;;;;17.45;58.14;101121.34;5019835;28;20083;-25
2023/01/28 00:33:17;;;;;;;15.52;5.50;;;;;;;17.45;58.33;101122.19;5017875;28;20037;-24
2023/01/28 00:35:43;;;;;;;11.10;4.70;;;;;;;17.45;58.26;101111.41;5018740;28;20029;-24
2023/01/28 00:38:09;;;;;;;12.77;4.95;;;;;;;17.45;58.13;101110.53;5016858;28;20033;-24
2023/01/28 00:40:35;;;;;;;12.57;4.65;;;;;;;17.46;58.29;101104.09;5019856;28;20040;-24
2023/01/28 00:43:00;;;;;;;12.05;4.50;;;;;;;17.48;58.28;101101.19;5021342;28;20072;-24
2023/01/28 00:45:26;;;;;;;11.43;4.63;;;;;;;17.44;57.58;101096.22;5020535;28;20045;-24
2023/01/28 00:47:52;;;;;;;13.00;4.80;;;;;;;17.45;58.29;101097.88;5021563;28;20052;-24
2023/01/28 00:50:20;;;;;;;9.25;4.10;;;;;;;17.35;57.54;101089.41;5019202;28;20137;-24
2023/01/28 00:52:46;;;;;;;8.68;4.45;;;;;;;17.45;58.26;101095.19;5019470;28;20026;-24
2023/01/28 00:55:12;;;;;;;11.35;4.18;;;;;;;17.48;58.48;101082.28;5024927;28;20052;-24
2023/01/28 00:57:38;;;;;;;10.43;3.88;;;;;;;17.48;58.49;101076.88;5023909;28;20471;-24
2023/01/28 01:00:04;;;;;;;10.27;4.38;;;;;;;17.46;58.71;101067.09;5024189;28;20037;-24
2023/01/28 01:02:30;;;;;;;7.00;3.70;;;;;;;17.48;58.71;101066.88;5025780;28;20060;-24
2023/01/28 01:04:59;;;;;;;10.68;3.70;;;;;;;17.44;57.90;101066.50;5020076;28;20481;-24
2023/01/28 01:07:33;;;;;;;8.02;3.60;;;;;;;17.49;58.48;101056.88;5022562;28;20033;-24
2023/01/28 01:10:03;;;;;;;6.57;3.38;;;;;;;17.51;58.75;101062.94;5023146;28;20018;-24
2023/01/28 01:12:28;;;;;;;8.13;3.30;;;;;;;17.49;58.56;101059.59;5024732;28;20017;-24
2023/01/28 01:14:54;;;;;;;8.68;3.47;;;;;;;17.42;57.71;101063.19;5025764;28;20037;-24
2023/01/28 01:17:20;;;;;;;6.65;3.10;;;;;;;17.45;58.42;101057.34;5022531;28;20404;-24
2023/01/28 01:19:46;;;;;;;8.68;3.25;;;;;;;17.48;58.51;101055.25;5025138;28;20021;-24
2023/01/28 01:22:12;;;;;;;9.90;3.25;;;;;;;17.47;57.30;101059.81;5024372;28;20025;-24
2023/01/28 01:24:37;;;;;;;8.30;3.28;;;;;;;17.48;58.20;101056.06;5025459;28;20356;-24
2023/01/28 01:27:04;;;;;;;6.85;2.85;;;;;;;17.49;58.72;101057.75;5023622;28;20091;-24
2023/01/28 01:29:32;;;;;;;7.05;3.05;;;;;;;17.52;58.56;101053.75;5023272;28;20029;-24
2023/01/28 01:31:58;;;;;;;6.47;3.15;;;;;;;17.51;58.85;101050.25;5024888;28;20587;-24
2023/01/28 01:34:24;;;;;;;6.75;2.85;;;;;;;17.52;58.75;101045.66;5024100;28;20116;-24
2023/01/28 01:36:50;;;;;;;7.45;2.80;;;;;;;17.54;58.66;101043.56;5024384;28;20288;-24
2023/01/28 01:39:16;;;;;;;5.72;2.72;;;;;;;17.55;58.48;101037.94;5022862;28;20035;-25
2023/01/28 01:41:41;;;;;;;6.00;2.90;;;;;;;17.54;58.82;101041.69;5021519;28;20528;-24
2023/01/28 01:45:05;;;;;;;6.30;3.00;;;;;;;17.42;57.16;101041.56;5024387;28;20068;-24
2023/01/28 01:48:08;;;;;;;4.72;2.60;;;;;;;17.53;58.60;101033.81;4961285;28;20401;-25
2023/01/28 01:50:33;;;;;;;6.63;2.92;;;;;;;17.55;58.74;101026.31;4930862;28;20039;-24
2023/01/28 01:53:13;;;;;;;5.28;2.67;;;;;;;17.56;58.60;101030.69;5006439;28;20380;-24
2023/01/28 01:55:40;;;;;;;5.00;2.28;;;;;;;17.54;58.66;101030.03;5023508;28;20029;-24
2023/01/28 01:58:08;;;;;;;4.18;2.15;;;;;;;17.54;58.46;101040.84;5022247;28;20021;-24
2023/01/28 02:00:33;;;;;;;5.15;2.47;;;;;;;17.56;58.70;101031.50;5025041;28;20491;-24
2023/01/28 02:02:59;;;;;;;6.60;2.65;;;;;;;17.56;58.51;101030.69;5023816;28;20265;-24
2023/01/28 02:05:25;;;;;;;5.00;2.20;;;;;;;17.39;57.02;101028.47;5021368;28;20052;-24
2023/01/28 02:08:19;;;;;;;5.05;2.30;;;;;;;17.55;58.49;101027.13;5021780;28;20112;-24
2023/01/28 02:10:41;;;;;;;4.07;2.28;;;;;;;17.44;58.22;101017.03;5007512;28;20051;-24
2023/01/28 02:13:06;;;;;;;6.03;2.45;;;;;;;17.46;57.83;101015.75;5023442;28;20021;-24
2023/01/28 02:15:32;;;;;;;4.95;2.25;;;;;;;17.54;58.74;101003.03;5023639;28;20025;-24
2023/01/28 02:17:58;;;;;;;5.35;2.20;;;;;;;17.55;58.78;100999.28;5023790;28;20038;-24
2023/01/28 02:20:27;;;;;;;3.38;2.17;;;;;;;17.58;58.54;100998.84;5022791;28;20017;-25
2023/01/28 02:22:59;;;;;;;5.80;2.20;;;;;;;17.58;58.88;100996.16;5024214;28;20061;-24
2023/01/28 02:25:42;;;;;;;5.18;2.80;;;;;;;17.59;58.57;100992.38;5021557;28;20083;-24
2023/01/28 02:28:25;;;;;;;4.45;2.08;;;;;;;17.59;58.79;100981.56;5021863;28;20025;-24
2023/01/28 02:31:10;;;;;;;3.70;1.88;;;;;;;17.58;58.78;100982.63;5023842;28;20535;-25
2023/01/28 02:33:58;;;;;;;4.00;2.20;;;;;;;17.60;58.75;100973.25;5019268;28;20111;-24
2023/01/28 02:36:37;;;;;;;4.88;2.40;;;;;;;17.58;58.27;100974.53;5021895;28;20387;-24
2023/01/28 02:39:09;;;;;;;4.97;2.22;;;;;;;17.60;58.77;100969.72;5022766;28;20026;-24
2023/01/28 02:41:42;;;;;;;2.47;1.75;;;;;;;17.62;58.81;100975.72;5005451;28;20025;-24
2023/01/28 02:44:08;;;;;;;3.28;1.70;;;;;;;17.61;58.77;100968.69;5021222;28;20029;-24
2023/01/28 02:49:45;;;;;;;3.92;1.77;;;;;;;17.64;58.64;100966.38;5022508;28;20132;-24
2023/01/28 02:55:31;;;;;;;4.03;1.70;;;;;;;17.63;58.24;100956.59;5022002;28;20052;-24
2023/01/28 02:58:06;;;;;;;2.85;1.50;;;;;;;17.63;58.68;100950.38;5022127;28;20124;-24
2023/01/28 03:00:53;;;;;;;4.47;1.85;;;;;;;17.65;58.73;100959.09;5022589;28;20037;-24
2023/01/28 03:03:26;;;;;;;3.90;1.38;;;;;;;17.61;58.60;100952.47;5022229;28;20033;-24
2023/01/28 03:06:03;;;;;;;4.38;1.80;;;;;;;17.64;58.46;100947.44;5022574;28;20172;-23
2023/01/28 03:38:58;;;;;;;;;;;;;;;17.65;58.40;100899.63;5020277;28;20095;-24
2023/01/28 03:41:24;;;;;;;2.88;1.17;;;;;;;17.64;58.40;100903.34;5022108;28;19929;-24
2023/01/28 03:43:50;;;;;;;2.45;1.27;;;;;;;17.66;58.16;100895.88;5022534;28;20115;-24
2023/01/28 03:46:17;;;;;;;2.80;1.20;;;;;;;17.65;58.43;100891.50;5022788;28;20061;-24
2023/01/28 03:48:42;;;;;;;1.50;0.90;;;;;;;17.65;58.31;100878.00;5022315;28;20309;-24
2023/01/28 03:51:08;;;;;;;3.03;1.23;;;;;;;17.65;58.20;100873.41;5022475;28;20048;-24
2023/01/28 03:53:34;;;;;;;2.30;1.33;;;;;;;17.65;58.43;100870.69;5022540;28;20040;-24
2023/01/28 03:55:59;;;;;;;1.83;1.00;;;;;;;17.66;58.29;100871.56;5022498;28;20383;-24
2023/01/28 03:58:45;;;;;;;2.00;1.08;;;;;;;17.66;58.54;100855.34;5022421;28;20406;-24
2023/01/28 04:01:11;;;;;;;1.27;1.00;;;;;;;17.65;57.43;100850.97;5021445;28;20038;-24
2023/01/28 04:03:37;;;;;;;3.78;1.40;;;;;;;17.66;58.16;100847.22;5021407;28;20551;-24
2023/01/28 04:06:04;;;;;;;2.45;1.08;;;;;;;17.65;58.10;100854.50;5020920;28;20029;-24
2023/01/28 04:08:30;;;;;;;2.35;1.30;;;;;;;17.68;58.18;100837.00;5021188;28;20129;-24
2023/01/28 04:10:56;;;;;;;2.53;1.20;;;;;;;17.63;56.74;100831.44;5022417;28;20120;-24
2023/01/28 04:13:21;;;;;;;1.58;1.00;;;;;;;17.66;58.29;100836.41;5021622;28;20044;-24
2023/01/28 04:15:47;;;;;;;2.72;1.30;;;;;;;17.65;57.02;100829.34;5022351;28;20026;-24
2023/01/28 04:18:13;;;;;;;1.42;1.00;;;;;;;17.65;58.15;100826.63;5021564;28;20495;-24
2023/01/28 04:20:39;;;;;;;1.15;0.93;;;;;;;17.66;58.18;100825.59;5021288;28;20026;-24
2023/01/28 04:23:05;;;;;;;1.38;0.98;;;;;;;17.66;58.09;100817.50;5022652;28;20040;-24
2023/01/28 04:25:31;;;;;;;1.60;0.88;;;;;;;17.67;58.46;100812.91;5021668;28;20439;-24
2023/01/28 04:27:57;;;;;;;1.73;1.08;;;;;;;17.67;58.23;100816.44;5022186;28;20065;-24
2023/01/28 04:30:23;;;;;;;1.23;0.88;;;;;;;17.68;58.24;100815.38;5025129;28;20140;-24
2023/01/28 04:32:51;;;;;;;2.13;0.95;;;;;;;17.68;58.24;100807.28;5024676;28;20532;-24
2023/01/28 04:35:20;;;;;;;1.25;0.90;;;;;;;17.67;58.19;100811.03;5024841;28;20457;-24
2023/01/28 04:37:45;;;;;;;1.67;0.98;;;;;;;17.69;58.09;100805.38;5026153;28;20074;-24
2023/01/28 04:40:11;;;;;;;0.88;0.73;;;;;;;17.68;58.09;100806.44;5025143;28;20021;-24
2023/01/28 04:42:37;;;;;;;1.45;0.90;;;;;;;17.69;58.10;100808.91;5025971;28;20021;-24
2023/01/28 04:45:04;;;;;;;2.42;1.10;;;;;;;17.68;58.17;100812.69;5025119;28;20133;-24
2023/01/28 04:47:29;;;;;;;1.70;0.90;;;;;;;17.68;58.12;100817.25;5025660;28;20510;-24
2023/01/28 04:49:55;;;;;;;0.80;0.65;;;;;;;17.69;58.17;100808.91;5025479;28;20042;-23
2023/01/28 04:52:21;;;;;;;1.40;0.85;;;;;;;17.68;58.17;100807.28;5025519;28;20033;-24
2023/01/28 04:54:46;;;;;;;1.13;0.73;;;;;;;17.69;58.28;100791.88;5026200;28;20033;-24
2023/01/28 04:57:12;;;;;;;1.33;0.88;;;;;;;17.70;58.12;100791.66;5025750;28;20026;-24
2023/01/28 04:59:37;;;;;;;1.00;0.70;;;;;;;17.68;58.22;100780.25;5024575;28;20079;-24
2023/01/28 05:02:03;;;;;;;1.92;0.90;;;;;;;17.69;58.23;100781.88;5025951;28;20026;-24
2023/01/28 05:04:29;;;;;;;0.88;0.65;;;;;;;17.69;57.99;100776.47;5025937;28;20037;-24
2023/01/28 05:06:55;;;;;;;1.50;0.73;;;;;;;17.68;58.28;100769.44;5023822;28;20029;-24
2023/01/28 05:09:20;;;;;;;1.80;0.93;;;;;;;17.67;58.03;100773.19;5024832;28;20036;-24
2023/01/28 05:11:46;;;;;;;0.80;0.60;;;;;;;17.68;57.94;100765.88;5023685;28;20029;-24
2023/01/28 05:14:12;;;;;;;1.77;0.80;;;;;;;17.67;58.18;100770.47;5025690;28;20021;-24
2023/01/28 05:16:37;;;;;;;1.00;0.60;;;;;;;17.70;58.12;100770.03;5025482;28;20025;-24
2023/01/28 05:19:03;;;;;;;2.22;0.90;;;;;;;17.71;58.04;100757.34;5024525;28;20463;-24
2023/01/28 05:21:28;;;;;;;1.95;0.60;;;;;;;17.70;58.29;100753.81;5024967;28;20450;-24
2023/01/28 05:23:54;;;;;;;1.58;0.70;;;;;;;17.70;58.13;100743.00;5025471;28;20519;-24
2023/01/28 05:26:20;;;;;;;0.90;0.70;;;;;;;17.67;58.01;100750.75;5024984;28;20037;-24
2023/01/28 05:28:45;;;;;;;1.75;0.60;;;;;;;17.71;57.97;100738.41;5022731;28;20029;-25
2023/01/28 05:31:11;;;;;;;0.70;0.60;;;;;;;17.70;58.19;100740.31;5024949;28;20571;-24
2023/01/28 05:33:37;;;;;;;1.35;0.82;;;;;;;17.68;57.98;100734.31;5020937;28;20941;-24
2023/01/28 05:36:03;;;;;;;0.90;0.50;;;;;;;17.70;58.07;100726.78;5024674;28;20096;-24
2023/01/28 05:38:28;;;;;;;1.10;0.50;;;;;;;17.65;57.09;100729.34;5025159;28;20033;-24
2023/01/28 05:40:54;;;;;;;0.50;0.50;;;;;;;17.67;58.50;100726.41;5023262;28;20017;-23
2023/01/28 05:43:20;;;;;;;2.17;0.80;;;;;;;17.71;58.25;100724.91;5023305;28;20039;-24
2023/01/28 05:45:46;;;;;;;1.05;0.70;;;;;;;17.69;58.27;100717.00;5023707;28;20036;-24
2023/01/28 05:48:12;;;;;;;0.82;0.60;;;;;;;17.70;58.19;100718.69;5024562;28;20475;-24
2023/01/28 05:50:38;;;;;;;1.33;0.73;;;;;;;17.71;58.39;100716.78;5023859;28;20045;-24
2023/01/28 05:53:06;;;;;;;0.65;0.65;;;;;;;17.72;58.24;100721.97;5023905;28;20026;-24
2023/01/28 05:55:32;;;;;;;0.98;0.73;;;;;;;17.69;58.52;100710.78;5022438;28;20083;-24
2023/01/28 05:57:58;;;;;;;0.95;0.63;;;;;;;17.68;57.81;100706.44;5023867;28;20017;-24
2023/01/28 06:00:23;;;;;;;1.00;0.65;;;;;;;17.72;58.05;100703.06;5022087;28;20025;-24
2023/01/28 06:02:52;;;;;;;1.48;0.65;;;;;;;17.73;58.13;100712.81;5017721;28;20022;-24
2023/01/28 06:05:18;;;;;;;0.77;0.60;;;;;;;17.58;57.18;100696.97;5021886;28;20030;-24
2023/01/28 06:07:47;;;;;;;1.45;0.60;;;;;;;17.70;58.24;100698.94;4994733;28;20026;-24
2023/01/28 06:10:13;;;;;;;1.58;0.73;;;;;;;17.69;58.47;100692.69;5024203;28;20025;-24
2023/01/28 06:12:39;;;;;;;1.02;0.57;;;;;;;17.73;58.11;100687.66;5024676;28;21060;-24
2023/01/28 06:15:05;;;;;;;1.15;0.63;;;;;;;17.72;58.43;100686.03;5022933;28;20060;-24
2023/01/28 06:17:31;;;;;;;1.50;0.50;;;;;;;17.70;58.27;100680.84;5022046;28;22081;-24
2023/01/28 06:19:56;;;;;;;0.47;0.47;;;;;;;17.72;58.29;100689.53;5023718;28;20033;-24
2023/01/28 06:22:22;;;;;;;0.50;0.50;;;;;;;17.71;58.36;100684.34;5023338;28;20025;-24
2023/01/28 06:24:48;;;;;;;0.68;0.55;;;;;;;17.74;58.34;100665.81;5023837;28;20494;-35
2023/01/28 06:27:13;;;;;;;1.23;0.50;;;;;;;17.74;58.21;100668.50;5024373;28;20029;-25
2023/01/28 06:29:42;;;;;;;0.40;0.40;;;;;;;17.72;58.50;100665.22;5023296;28;20426;-25
2023/01/28 06:32:07;;;;;;;0.35;0.30;;;;;;;17.72;57.70;100650.88;5023373;28;20036;-24
2023/01/28 06:34:33;;;;;;;0.82;0.60;;;;;;;17.65;58.16;100648.25;5020027;28;20029;-24
2023/01/28 06:36:59;;;;;;;1.25;0.40;;;;;;;17.65;57.78;100646.38;5023850;28;20021;-24
2023/01/28 06:39:26;;;;;;;1.02;0.47;;;;;;;17.65;58.34;100640.97;5022816;28;20048;-25
2023/01/28 06:41:52;;;;;;;0.70;0.40;;;;;;;17.67;58.40;100643.44;5022707;28;20257;-24
2023/01/28 06:44:17;;;;;;;1.35;0.50;;;;;;;17.70;58.39;100642.19;5022700;28;20018;-24
2023/01/28 06:46:43;;;;;;;1.05;0.50;;;;;;;17.74;58.56;100643.34;5023357;28;20032;-24
2023/01/28 06:49:09;;;;;;;0.85;0.55;;;;;;;17.59;57.46;100630.25;5023943;28;20525;-24
2023/01/28 06:51:35;;;;;;;0.52;0.40;;;;;;;17.70;58.55;100621.38;5021767;28;20039;-24
2023/01/28 06:54:00;;;;;;;0.95;0.55;;;;;;;17.75;58.49;100626.09;5023314;28;20049;-24
2023/01/28 06:56:26;;;;;;;1.33;0.57;;;;;;;17.73;58.47;100620.91;5023055;28;20104;-24
2023/01/28 06:58:51;;;;;;;0.80;0.50;;;;;;;17.69;57.73;100619.72;5023083;28;20097;-24
2023/01/28 07:01:19;;;;;;;0.60;0.40;;;;;;;17.74;58.50;100611.75;5023138;28;20041;-24
2023/01/28 07:03:45;;;;;;;0.43;0.40;;;;;;;17.71;58.47;100612.19;5023709;28;20378;-24
2023/01/28 07:06:10;;;;;;;0.82;0.43;;;;;;;17.76;58.41;100604.22;5021828;28;20022;-24
2023/01/28 07:08:36;;;;;;;0.63;0.50;;;;;;;17.63;58.41;100616.06;5023706;28;20025;-24
2023/01/28 07:11:03;;;;;;;1.13;0.60;;;;;;;17.70;58.35;100607.84;5022850;28;20033;-24
2023/01/28 07:13:29;;;;;;;0.85;0.40;;;;;;;17.76;58.39;100609.63;5022777;28;20032;-24
2023/01/28 07:15:54;;;;;;;0.40;0.40;;;;;;;17.74;58.51;100605.50;5023266;28;20018;-24
2023/01/28 07:18:20;;;;;;;0.40;0.40;;;;;;;17.78;58.62;100602.13;5022255;28;20029;-24
2023/01/28 07:20:46;;;;;;;0.60;0.43;;;;;;;17.77;58.69;100583.44;5022824;28;20079;-24
2023/01/28 07:23:12;;;;;;;0.73;0.40;;;;;;;17.78;58.71;100580.50;5023074;28;20022;-24
2023/01/28 07:25:37;;;;;;;0.77;0.52;;;;;;;17.76;58.63;100571.78;5022324;28;20319;-24
2023/01/28 07:28:03;;;;;;;0.57;0.50;;;;;;;17.72;58.64;100565.19;5023040;28;20025;-24
2023/01/28 07:30:29;;;;;;;0.65;0.40;;;;;;;17.78;58.53;100567.00;5022771;28;20056;-24
2023/01/28 07:32:55;;;;;;;0.47;0.35;;;;;;;17.78;58.63;100558.03;5019292;28;20026;-24
2023/01/28 07:35:21;;;;;;;0.43;0.40;;;;;;;17.74;58.39;100563.09;5020079;28;20039;-24
2023/01/28 07:37:53;;;;;;;0.98;0.50;;;;;;;17.78;58.70;100553.47;5024008;28;20029;-24
2023/01/28 07:40:19;;;;;;;0.52;0.35;;;;;;;17.77;58.56;100549.13;5020186;28;20032;-24
2023/01/28 07:42:45;;;;;;;0.52;0.40;;;;;;;17.80;58.15;100537.84;5021803;28;20383;-24
2023/01/28 07:45:11;;;;;;;0.73;0.60;;;;;;;17.74;57.82;100540.66;5020657;28;20037;-24
2023/01/28 07:47:36;;;;;;;0.35;0.32;;;;;;;17.79;58.58;100521.84;5021459;28;20688;-24
2023/01/28 07:50:02;;;;;;;0.32;0.30;;;;;;;17.80;58.41;100518.09;5022166;28;20129;-24
2023/01/28 07:52:28;;;;;;;0.47;0.30;;;;;;;17.81;58.55;100512.44;5022481;28;20557;-24
2023/01/28 07:54:53;;;;;;;0.40;0.40;;;;;;;17.79;58.44;100501.03;5021718;28;20091;-24
2023/01/28 07:57:21;;;;;;;1.15;0.35;;;;;;;17.82;58.55;100506.00;5020856;28;20497;-24
2023/01/28 07:59:49;;;;;;;0.35;0.30;;;;;;;17.76;58.33;100496.09;5023059;28;20419;-24
2023/01/28 08:02:14;;;;;;;1.45;0.40;;;;;;;17.82;58.60;100495.19;5020899;28;20112;-24
2023/01/28 08:04:40;;;;;;;0.30;0.30;;;;;;;17.81;58.71;100490.81;5024440;28;20032;-24
2023/01/28 08:07:06;;;;;;;0.68;0.40;;;;;;;17.82;58.50;100481.66;5024816;28;20052;-24
2023/01/28 08:09:33;;;;;;;0.40;0.40;;;;;;;17.82;58.65;100473.56;5026454;28;20410;-24
2023/01/28 08:12:00;;;;;;;0.57;0.30;;;;;;;17.84;58.85;100476.84;5026842;28;20069;-24
2023/01/28 08:14:26;;;;;;;1.08;0.40;;;;;;;17.87;58.70;100474.75;5023760;28;20196;-24
2023/01/28 08:16:52;;;;;;;0.57;0.40;;;;;;;17.78;56.31;100485.91;5025164;28;20498;-24
2023/01/28 08:19:21;;;;;;;0.55;0.40;;;;;;;17.85;58.48;100483.09;5023045;28;20026;-24
2023/01/28 08:21:47;;;;;;;1.80;0.40;;;;;;;17.86;58.61;100489.31;5023711;28;20029;-24
2023/01/28 08:24:13;;;;;;;0.40;0.30;;;;;;;17.83;58.81;100475.22;5025806;28;20108;-24
2023/01/28 08:26:38;;;;;;;0.75;0.50;;;;;;;17.86;58.48;100473.09;5024914;28;20112;-24
2023/01/28 08:29:04;;;;;;;0.75;0.40;;;;;;;17.86;58.74;100473.09;5026255;28;20029;-24
2023/01/28 08:31:30;;;;;;;0.25;0.20;;;;;;;17.86;58.36;100473.09;5024498;28;20041;-24
2023/01/28 08:33:56;;;;;;;0.95;0.60;;;;;;;17.86;58.76;100478.50;5025378;28;20036;-24
2023/01/28 08:36:22;;;;;;;0.73;0.40;;;;;;;17.83;58.71;100460.84;5025960;28;20081;-24
2023/01/28 08:38:52;;;;;;;0.40;0.40;;;;;;;17.81;57.42;100458.38;5024706;28;20025;-24
2023/01/28 08:41:20;;;;;;;0.40;0.40;;;;;;;17.86;58.66;100451.47;5023589;28;20463;-24
2023/01/28 08:43:46;;;;;;;0.95;0.30;;;;;;;17.82;58.57;100443.81;5024525;28;20032;-24
2023/01/28 08:46:12;;;;;;;1.63;0.38;;;;;;;17.87;58.72;100436.91;5024312;28;20029;-24
2023/01/28 08:48:37;;;;;;;0.52;0.30;;;;;;;17.85;58.68;100437.13;5025637;28;20116;-24
2023/01/28 08:51:03;;;;;;;0.40;0.30;;;;;;;17.90;58.59;100436.44;5024967;28;20037;-24
2023/01/28 08:53:29;;;;;;;0.63;0.43;;;;;;;17.89;58.82;100432.09;5023962;28;20115;-24
2023/01/28 08:55:55;;;;;;;0.85;0.40;;;;;;;17.81;58.64;100428.63;5025694;28;20033;-24
2023/01/28 08:58:21;;;;;;;0.40;0.40;;;;;;;17.90;58.97;100429.16;5025861;28;20443;-24
2023/01/28 09:00:47;;;;;;;0.47;0.30;;;;;;;17.82;58.55;100429.47;5025335;28;20025;-24
2023/01/28 09:03:12;;;;;;;0.22;0.22;;;;;;;17.82;57.65;100429.47;5023513;28;20391;-23
2023/01/28 09:05:38;;;;;;;0.32;0.30;;;;;;;17.82;55.77;100424.88;5024542;28;20080;-24
2023/01/28 09:08:05;;;;;;;1.05;0.30;;;;;;;17.90;56.82;100417.50;5026021;28;20028;-24
2023/01/28 09:10:31;;;;;;;0.70;0.40;;;;;;;17.88;56.61;100406.13;5026608;28;20026;-24
2023/01/28 09:12:57;;;;;;;1.23;0.50;;;;;;;17.90;57.01;100404.84;5024870;28;20030;-23
2023/01/28 09:15:22;;;;;;;0.73;0.40;;;;;;;17.84;56.41;100411.13;5025381;28;20025;-24
2023/01/28 09:17:48;;;;;;;0.80;0.50;;;;;;;17.88;57.17;100403.41;5023293;28;20061;-24
2023/01/28 09:20:14;;;;;;;0.63;0.38;;;;;;;17.90;57.57;100404.00;5022691;28;20025;-24
2023/01/28 09:22:40;;;;;;;3.13;0.60;;;;;;;17.73;56.71;100398.44;5021549;28;20021;-23
2023/01/28 09:25:06;;;;;;;0.63;0.40;;;;;;;17.80;57.92;100404.56;5023018;28;20025;-23
2023/01/28 09:27:32;;;;;;;0.57;0.50;;;;;;;17.78;56.72;100396.69;5022490;28;20479;-24
2023/01/28 09:29:58;;;;;;;0.32;0.32;;;;;;;17.84;57.37;100398.44;5023356;28;20029;-24
2023/01/28 09:32:23;;;;;;;4.22;0.40;;;;;;;17.80;57.62;100394.56;5022289;28;20033;-24
2023/01/28 09:34:49;;;;;;;0.40;0.32;;;;;;;17.89;58.25;100386.16;5025520;28;20036;-23
2023/01/28 09:37:17;;;;;;;0.63;0.30;;;;;;;17.91;58.27;100386.72;5026337;28;20402;-24
2023/01/28 09:39:43;;;;;;;0.40;0.30;;;;;;;17.94;57.83;100389.78;5025691;28;20534;-24
2023/01/28 09:42:10;;;;;;;0.55;0.40;;;;;;;17.97;58.23;100388.47;5025617;28;20083;-24
2023/01/28 09:44:55;;;;;;;1.13;0.38;;;;;;;17.96;58.36;100381.44;5025852;28;20088;-24
2023/01/28 09:47:37;;;;;;;1.27;0.40;;;;;;;17.93;58.67;100382.72;5023349;28;20197;-24
2023/01/28 09:50:17;;;;;;;0.75;0.40;;;;;;;17.98;58.53;100382.00;5022865;28;20485;-24
2023/01/28 09:52:43;;;;;;;0.60;0.50;;;;;;;17.98;58.51;100361.19;5021995;28;20546;-23
2023/01/28 09:55:33;;;;;;;0.82;0.40;;;;;;;18.00;58.60;100358.25;5023614;28;20360;-24
2023/01/28 09:58:00;;;;;;;0.93;0.40;;;;;;;18.00;58.63;100355.56;5022141;28;20393;-24
2023/01/28 10:00:57;;;;;;;0.68;0.30;;;;;;;18.04;58.47;100348.63;5024103;28;20109;-24
2023/01/28 10:03:54;;;;;;;0.30;0.30;;;;;;;18.04;58.85;100331.56;4989831;28;20052;-24
2023/01/28 10:06:25;;;;;;;0.63;0.40;;;;;;;17.94;56.83;100335.69;5023505;28;20044;-23
2023/01/28 10:09:28;;;;;;;0.75;0.30;;;;;;;17.93;58.38;100323.22;5022189;28;20477;-24
2023/01/28 10:12:03;;;;;;;0.80;0.40;;;;;;;17.93;58.71;100317.81;5020294;28;20109;-24
2023/01/28 10:15:09;;;;;;;2.25;0.65;;;;;;;17.96;57.80;100316.53;5022271;28;20128;-23
2023/01/28 10:17:41;;;;;;;0.30;0.30;;;;;;;18.00;58.74;100318.50;5020754;28;20353;-24
2023/01/28 10:20:29;;;;;;;0.73;0.30;;;;;;;17.99;58.70;100294.44;5024384;28;20026;-23
2023/01/28 10:22:58;;;;;;;1.08;0.35;;;;;;;17.97;58.30;100297.38;5023470;28;20029;-24
2023/01/28 10:25:24;;;;;;;0.30;0.30;;;;;;;18.04;58.68;100288.28;5021852;28;20021;-24
2023/01/28 10:27:50;;;;;;;1.08;0.40;;;;;;;18.02;58.71;100283.13;5021987;28;20483;-24
2023/01/28 10:30:21;;;;;;;0.93;0.32;;;;;;;18.04;58.64;100275.63;5024182;28;20119;-24
2023/01/28 10:32:57;;;;;;;0.40;0.40;;;;;;;18.05;58.68;100261.00;5022411;28;20026;-24
2023/01/28 10:35:23;;;;;;;0.60;0.35;;;;;;;18.09;58.69;100259.50;5023828;28;20034;-23
2023/01/28 10:37:48;;;;;;;0.50;0.30;;;;;;;18.09;58.92;100248.69;5022269;28;20040;-25
2023/01/28 10:40:15;;;;;;;0.50;0.40;;;;;;;18.05;58.55;100249.38;5023475;28;20116;-23
2023/01/28 10:42:41;;;;;;;0.47;0.38;;;;;;;18.08;58.88;100240.81;5022507;28;20438;-24
2023/01/28 10:45:27;;;;;;;0.55;0.20;;;;;;;18.08;58.87;100230.78;5023312;28;20017;-23
2023/01/28 10:48:00;;;;;;;0.30;0.30;;;;;;;18.09;58.86;100235.16;5022265;28;20503;-24
2023/01/28 10:50:27;;;;;;;1.10;0.32;;;;;;;18.02;58.64;100229.03;5023198;28;20110;-23
2023/01/28 10:52:57;;;;;;;0.75;0.40;;;;;;;18.11;59.06;100229.47;5021446;28;20506;-24
2023/01/28 10:55:28;;;;;;;0.80;0.30;;;;;;;18.11;58.86;100210.53;5023303;28;20072;-23
2023/01/28 10:57:54;;;;;;;0.30;0.30;;;;;;;18.08;57.02;100195.63;5023694;28;20049;-24
2023/01/28 11:00:23;;;;;;;1.20;0.63;;;;;;;18.08;58.55;100206.47;5023381;28;20029;-24
2023/01/28 11:02:48;;;;;;;1.08;0.40;;;;;;;18.12;58.85;100191.38;5023286;28;20081;-24
2023/01/28 11:05:17;;;;;;;1.55;0.40;;;;;;;18.12;59.06;100191.38;5005287;28;20124;-25
2023/01/28 11:07:43;;;;;;;0.63;0.43;;;;;;;18.13;58.23;100182.22;5022923;28;20060;-24
2023/01/28 11:10:41;;;;;;;1.02;0.38;;;;;;;18.13;58.14;100176.00;5022908;28;20025;-24
2023/01/28 11:13:33;;;;;;;0.50;0.30;;;;;;;18.11;58.60;100176.22;4987791;28;20033;-24
2023/01/28 11:16:12;;;;;;;0.95;0.32;;;;;;;18.16;58.87;100170.91;5020666;28;20432;-24
2023/01/28 11:18:39;;;;;;;1.45;0.50;;;;;;;18.10;59.13;100168.34;5021835;28;20029;-24
2023/01/28 11:21:24;;;;;;;1.10;0.50;;;;;;;18.09;58.46;100159.44;5022620;28;20029;-24
2023/01/28 11:23:54;;;;;;;0.70;0.40;;;;;;;18.16;58.98;100154.69;5017463;28;20021;-24
2023/01/28 11:26:31;;;;;;;0.65;0.47;;;;;;;18.09;59.00;100153.19;5017592;28;20017;-24
2023/01/28 11:28:57;;;;;;;0.40;0.30;;;;;;;18.19;58.89;100145.25;5019160;28;20116;-24
2023/01/28 11:31:23;;;;;;;0.52;0.30;;;;;;;18.18;58.79;100136.31;5021775;28;20387;-24
2023/01/28 11:33:53;;;;;;;0.35;0.30;;;;;;;18.20;58.91;100123.38;5019105;28;20038;-23
2023/01/28 11:36:21;;;;;;;1.02;0.30;;;;;;;18.14;58.69;100128.94;5018456;28;20024;-24
2023/01/28 11:38:52;;;;;;;0.75;0.40;;;;;;;18.19;59.10;100118.19;5018345;28;20171;-24
2023/01/28 11:41:34;;;;;;;0.40;0.40;;;;;;;18.23;59.07;100118.53;5016620;28;20018;-24
2023/01/28 11:44:10;;;;;;;0.43;0.35;;;;;;;18.20;58.86;100106.34;5018129;28;20071;-24
2023/01/28 11:46:47;;;;;;;0.32;0.32;;;;;;;18.25;59.13;100114.53;5017615;28;20525;-24
2023/01/28 11:49:57;;;;;;;0.52;0.30;;;;;;;18.18;58.78;100098.47;5021251;28;20108;-23
2023/01/28 11:52:37;;;;;;;0.50;0.30;;;;;;;18.13;58.77;100101.06;5011662;28;20412;-24
2023/01/28 11:55:27;;;;;;;0.68;0.50;;;;;;;18.08;56.67;100098.28;5020773;28;20049;-24
2023/01/28 11:58:17;;;;;;;0.50;0.30;;;;;;;18.16;58.79;100092.47;5020002;28;20033;-24
2023/01/28 12:01:07;;;;;;;0.50;0.30;;;;;;;18.22;59.02;100081.75;4983421;28;20034;-23
2023/01/28 12:03:56;;;;;;;0.70;0.43;;;;;;;18.17;57.65;100075.16;5020561;28;20043;-24
2023/01/28 12:06:31;;;;;;;0.45;0.30;;;;;;;18.23;59.04;100072.56;5018149;28;20299;-24
2023/01/28 12:09:23;;;;;;;0.30;0.30;;;;;;;18.26;58.91;100077.47;5018083;28;20112;-24
2023/01/28 12:12:11;;;;;;;0.95;0.43;;;;;;;18.22;59.23;100079.84;5009647;28;20290;-24